EDT,Max TemperatureF,Mean TemperatureF,Min TemperatureF,Max Dew PointF,MeanDew PointF,Min DewpointF,Max Humidity, Mean Humidity, Min Humidity, Max Sea Level PressureIn, Mean Sea Level PressureIn, Min Sea Level PressureIn, Max VisibilityMiles, Mean VisibilityMiles, Min VisibilityMiles, Max Wind SpeedMPH, Mean Wind SpeedMPH, Max Gust SpeedMPH,PrecipitationIn, CloudCover, Events, WindDirDegrees
2013-8-1,84,76,69,71,69,66,94,84,60,30.02,29.94,29.85,10,7,2,9,1,16,0.08,6,Rain-Thunderstorm,241
2013-8-2,84,75,66,69,66,63,93,73,53,30.00,29.97,29.90,10,10,10,5,2,,0.01,1,,317
2013-8-3,87,78,70,71,67,64,93,73,48,29.99,29.96,29.92,10,9,5,9,2,,0.00,1,,265
2013-8-4,86,78,69,68,63,57,87,64,38,30.01,29.95,29.90,10,10,9,9,4,,0.00,2,Rain,1
2013-8-5,82,74,66,67,63,59,87,71,57,30.12,30.03,29.95,10,10,2,7,2,,0.04,5,Rain,100
2013-8-6,77,70,66,70,67,64,93,85,76,30.07,30.02,29.94,10,9,4,9,3,16,0.03,7,Rain,197
2013-8-7,78,74,69,72,69,66,96,88,74,30.12,30.06,30.00,10,6,1,9,3,,0.13,7,Rain,200
2013-8-8,86,78,71,71,70,68,94,80,63,30.11,30.02,29.97,10,9,5,10,3,18,0.00,5,,197
2013-8-9,89,80,72,73,71,70,93,81,57,30.03,30.00,29.97,10,9,3,14,4,20,0.05,1,Rain,214
2013-8-10,89,80,71,73,70,69,94,86,55,30.13,30.07,30.01,10,8,2,13,2,21,0.38,3,Rain,238
2013-8-11,88,78,69,72,69,66,94,82,55,30.17,30.08,30.01,10,9,6,9,1,,0.00,2,,228
2013-8-12,89,79,69,71,69,66,94,81,51,30.05,30.00,29.94,10,8,0,7,3,,0.78,3,Fog-Rain-Thunderstorm,308
2013-8-13,87,76,69,72,70,63,100,88,61,29.97,29.89,29.79,10,4,0,9,1,16,0.05,5,Fog-Rain,265
2013-8-14,79,71,64,66,61,57,87,69,54,30.06,29.95,29.85,10,10,1,7,3,,0.00,2,,44
2013-8-15,72,64,57,61,55,53,90,74,57,30.16,30.10,30.05,10,10,8,8,2,,0.00,5,,41
2013-8-16,75,66,59,58,57,56,93,75,55,30.16,30.11,30.07,10,10,9,9,2,,0.00,4,,48
2013-8-17,66,63,60,63,60,57,100,87,73,30.23,30.16,30.13,10,7,2,10,4,,0.21,7,Rain,28
2013-8-18,77,70,62,68,64,62,100,88,69,30.25,30.17,30.12,10,9,2,5,1,,0.33,7,Rain,319
2013-8-19,75,70,68,68,66,64,96,86,73,30.22,30.15,30.07,10,8,2,4,1,,0.43,7,Rain,228
2013-8-20,80,72,64,68,66,63,100,89,65,30.23,30.16,30.09,10,5,0,4,0,,0.00,5,Fog,10
2013-8-21,81,74,68,72,68,66,96,88,65,30.27,30.19,30.10,10,7,1,8,1,,0.09,4,Rain,250
2013-8-22,88,78,69,70,68,64,100,84,46,30.19,30.12,29.98,10,4,0,7,2,,0.00,2,Fog,283
2013-8-23,86,75,66,69,66,64,94,80,51,30.08,30.01,29.96,10,9,0,17,3,32,0.34,2,Rain-Thunderstorm,321
2013-8-24,81,72,63,63,57,53,84,64,42,30.28,30.19,30.09,10,10,10,10,7,16,0.00,1,,44
2013-8-25,80,68,57,61,58,55,93,71,45,30.42,30.32,30.27,10,10,9,7,1,,0.00,1,,70
2013-8-26,84,70,57,64,59,55,100,81,47,30.32,30.24,30.10,10,7,0,6,1,,0.01,2,Fog,231
2013-8-27,88,74,63,68,65,61,93,73,49,30.11,30.03,29.97,10,9,6,8,2,,0.00,1,,285
2013-8-28,88,78,69,70,68,65,87,71,53,29.99,29.94,29.89,10,8,5,10,4,,0.00,1,,266
2013-8-29,91,82,73,72,69,66,94,75,44,30.05,29.95,29.86,10,7,0,10,4,36,1.33,5,Fog-Rain-Thunderstorm,12
2013-8-30,84,76,71,72,68,65,94,81,56,30.10,30.01,29.91,10,8,2,7,2,,0.00,6,Rain,57
2013-8-31,87,78,69,71,68,67,94,82,59,29.97,29.91,29.86,10,9,2,12,2,18,0.16,2,Rain-Thunderstorm,251